Main page
METAR-TAF:

METAR-TAF

Airports :

London Biggin Hill Airport

London Biggin Hill, England

latitude: 51-19N, longitude: 000-02E, elevation: 183 m

Current weather observation

The report was made 10 hours and 5 minutes ago, at 21:50 UTC
Wind 4 kt from the East
Temperature 1°C
Humidity 86%
Pressure 1010 hPa
Visibility 10 km or more
Scattered clouds at a height of 1500 ft

METAR: EGKB 192150Z 09004KT 9999 SCT015 01/M01 Q1010

Time: 07:55 (07:55 UTC)

Forecast

The report was made 14 hours and 55 minutes ago, at 17:00 UTC
Forecast valid from 19 at 18 UTC to 19 at 22 UTC
Wind 7 kt from the East/Southeast
Visibility 10 km or more
Broken clouds at a height of 1200 ft
Temporary
from 19 at 18 UTC to 19 at 22 UTC
Visibility: 6000 m
Broken clouds at a height of 700 ft

TAF: EGKB 191700Z 1918/1922 12007KT 9999 BKN012 TEMPO 1918/1922 6000 BKN007

Weather observations and forecasts of more than 4000 airports (METAR and TAF reports).

The available stations are represented by yellow and red dots on the map.

Hover mouse over dot to see the name of the station.

Then click to see weather observations and forecasts.

To change the map : click on the green buttons with a black cross to zoom in, on the green button with a dash to zoom out, or on the green arrows for adjacent maps.


METAR-TAF: